Atqasuk, Alaska
Current Conditions -  °F | °C
As of 2:53 PM on Saturday 25 Oct 2014 (Local Time) from PAWI Reporting Station
Clear Clear  
Wind Chill: -7°   Ceiling: Unl
Heat Index:   Visibility: 10mi
Dew Point:   Wind: 13mph
Humidity: 77%   Direction: 50°NE
Pressure: 29.64"   Gusts: NA
Location:  70.47°N, 157.4°W
Report Text: PAWI 252253Z AUTO 05011KT 10SM CLR M13/M16 A2964 RMK AO2 SLP037 T11281161 TSNO
Loading
Personal Weather Stations






























Interactive Weather Map New forecast layout! Learn more

10-Day Weather Forecast

Advertisements
Track Severe Weather on mobile